Etusivu
METAR-TAF:

METAR-TAF

Lentoasemat :

Larnaka, Kypros

Larnakan kansainvälinen lentoasema

Leveyspiiri: 34-53N, Pituuspiiri: 033-38E, korkeus merenpinnasta: 2 m

Tämänhetkinen sää

Tämä raportti tehtiin 21 minuuttia sitten, kello 17.00 UTC
Tuuli 6 kn pohjoisesta
Lämpötila 14°C
Kosteus 82%
Ilmanpaine 1025 hPa
Näkyvyys 10 km tai enemmän
ei pilviä alle 1500 m:ssä eikä cumulonimbus-pilviä

METAR: LCLK 111700Z 35006KT CAVOK 14/11 Q1025 NOSIG

Aika: 19:21 (17:21 UTC)

Sääennuste

Tämä raportti tehtiin 5 tuntia ja 51 minuuttia sitten, kello 11.30 UTC
Ennuste voimassa 11. päivästä klo 12 UTC - 12. päivään klo 12 UTC
Tuuli 12 kn idästä/koillisesta
Näkyvyys 10 km tai enemmän
Muutamia pilviä 3000 ft:n korkeudessa
Tulossa
11. päivästä klo 15 UTC - 11. päivään klo 18 UTC
Tuuli 9 kn pohjoisesta
Tulossa
12. päivästä klo 05 UTC - 12. päivään klo 08 UTC
Tuuli 11 kn idästä/koillisesta

TAF: LCLK 111130Z 1112/1212 06012KT 9999 FEW030 BECMG 1115/1118 36009KT BECMG 1205/1208 06011KT

Säähavainnot ja -ennusteet yli 4000 lentoasemalta (METAR- ja TAF-raportit).

Käytössä olevat sääasemat on merkitty karttaan keltaisilla ja punaisilla pisteillä.

Aseta hiiri pisteen päälle nähdäksesi sääaseman nimen.

Klikkaa sitten nähdäksesi säähavainnot ja -ennusteet.

Kartan vaihtaminen: klikkaa mustalla rastilla varustettuja vihreitä pisteitä, niin voit zoomata sisään; viivalla varustettua vihreää pistettä, niin voit zoomata ulos tai vihreitä nuolia, niin pääset viereisille kartoille.


METAR-TAF: